createdAt,value
2019-02-15T00:01:38.780Z,35.90
2019-02-15T00:04:09.759Z,32.50
2019-02-15T00:06:40.918Z,31.10
2019-02-15T00:09:11.916Z,32.83
2019-02-15T00:11:42.344Z,34.10
2019-02-15T00:14:12.763Z,33.53
2019-02-15T00:16:43.309Z,34.60
2019-02-15T00:19:38.515Z,33.87
2019-02-15T00:22:09.109Z,35.97
2019-02-15T00:24:39.866Z,34.80
2019-02-15T00:27:10.996Z,35.10
2019-02-15T00:29:41.529Z,33.47
2019-02-15T00:32:12.264Z,30.77
2019-02-15T00:34:42.854Z,32.37
2019-02-15T00:37:13.277Z,32.60
2019-02-15T00:39:43.904Z,32.47
2019-02-15T00:42:14.523Z,31.93
2019-02-15T00:44:44.933Z,33.90
2019-02-15T00:47:46.039Z,33.57
2019-02-15T00:50:41.354Z,31.87
2019-02-15T00:53:33.759Z,33.93
2019-02-15T00:56:28.679Z,33.47
2019-02-15T00:59:07.889Z,33.80
2019-02-15T01:01:55.514Z,34.07
2019-02-15T01:04:45.134Z,32.80
2019-02-15T01:07:33.114Z,33.77
2019-02-15T01:10:28.018Z,30.27
2019-02-15T01:13:17.189Z,30.50
2019-02-15T01:15:47.929Z,30.87
2019-02-15T01:18:18.964Z,30.43
2019-02-15T01:20:49.458Z,29.63
2019-02-15T01:23:20.244Z,30.17
2019-02-15T01:26:21.374Z,30.23
2019-02-15T01:29:03.109Z,34.93
2019-02-15T01:32:01.359Z,32.57
2019-02-15T01:34:56.642Z,31.43
2019-02-15T01:37:33.374Z,31.63
2019-02-15T01:40:26.019Z,33.17
2019-02-15T01:43:14.744Z,34.63
2019-02-15T01:45:56.299Z,31.67
2019-02-15T01:48:26.984Z,30.57
2019-02-15T01:50:57.414Z,35.03
2019-02-15T01:53:28.278Z,38.13
2019-02-15T01:55:59.124Z,34.67
2019-02-15T01:58:29.619Z,34.30
2019-02-15T02:01:00.418Z,36.13
2019-02-15T02:03:31.283Z,36.47
2019-02-15T02:06:01.683Z,40.17
2019-02-15T02:08:33.273Z,37.67
2019-02-15T02:11:03.783Z,36.83
2019-02-15T02:13:34.269Z,36.67
2019-02-15T02:16:04.829Z,36.90
2019-02-15T02:18:35.311Z,36.63
2019-02-15T02:21:05.668Z,35.90
2019-02-15T02:23:36.204Z,35.23
2019-02-15T02:26:06.858Z,34.60
2019-02-15T02:28:37.334Z,36.70
2019-02-15T02:31:07.950Z,35.07
2019-02-15T02:33:38.368Z,36.80
2019-02-15T02:36:08.899Z,36.63
2019-02-15T02:38:39.733Z,35.37
2019-02-15T02:41:10.289Z,36.90
2019-02-15T02:43:40.854Z,37.20
2019-02-15T02:46:11.783Z,35.13
2019-02-15T02:48:42.226Z,35.73
2019-02-15T02:51:12.570Z,33.10
2019-02-15T02:53:43.158Z,33.10
2019-02-15T02:56:13.969Z,33.77
2019-02-15T02:58:44.345Z,34.90
2019-02-15T03:01:15.035Z,35.60
2019-02-15T03:03:45.420Z,34.30
2019-02-15T03:06:16.004Z,36.60
2019-02-15T03:08:46.918Z,34.30
2019-02-15T03:11:17.564Z,35.10
2019-02-15T03:13:48.271Z,33.53
2019-02-15T03:16:19.299Z,31.73
2019-02-15T03:18:49.684Z,33.93
2019-02-15T03:21:20.114Z,32.40
2019-02-15T03:23:50.977Z,33.07
2019-02-15T03:26:21.414Z,32.70
2019-02-15T03:28:52.059Z,34.13
2019-02-15T03:31:22.523Z,33.67
2019-02-15T03:33:53.230Z,33.23
2019-02-15T03:36:45.315Z,33.43
2019-02-15T03:39:22.204Z,33.37
2019-02-15T03:41:52.795Z,32.50
2019-02-15T03:44:23.271Z,34.97
2019-02-15T03:46:53.950Z,37.93
2019-02-15T03:49:24.550Z,34.93
2019-02-15T03:51:54.992Z,35.77
2019-02-15T03:54:25.920Z,36.30
2019-02-15T03:56:56.515Z,37.07
2019-02-15T03:59:27.131Z,32.53
2019-02-15T04:01:57.588Z,33.93
2019-02-15T04:04:28.660Z,34.83
2019-02-15T04:06:59.257Z,36.57
2019-02-15T04:09:30.515Z,34.93
2019-02-15T04:12:01.520Z,36.60
2019-02-15T04:14:33.231Z,37.00
2019-02-15T04:17:04.284Z,35.80
2019-02-15T04:19:34.889Z,35.43
2019-02-15T04:22:05.395Z,34.73
2019-02-15T04:24:36.080Z,34.00
2019-02-15T04:27:06.624Z,36.93
2019-02-15T04:29:37.309Z,35.93
2019-02-15T04:32:07.741Z,37.13
2019-02-15T04:34:38.365Z,37.30
2019-02-15T04:37:09.050Z,36.70
2019-02-15T04:39:39.678Z,37.13
2019-02-15T04:42:10.587Z,38.33
2019-02-15T04:44:43.051Z,33.93
2019-02-15T04:47:13.579Z,32.43
2019-02-15T04:49:44.419Z,32.30
2019-02-15T04:52:15.015Z,33.70
2019-02-15T04:54:46.298Z,33.00
2019-02-15T04:57:17.079Z,31.00
2019-02-15T04:59:47.674Z,29.87
2019-02-15T05:02:18.203Z,31.03
2019-02-15T05:04:49.205Z,30.63
2019-02-15T05:07:19.999Z,30.73
2019-02-15T05:09:50.957Z,32.07
2019-02-15T05:12:21.694Z,31.37
2019-02-15T05:14:53.468Z,31.27
2019-02-15T05:17:24.206Z,33.03
2019-02-15T05:19:54.834Z,31.10
2019-02-15T05:22:25.519Z,32.30
2019-02-15T05:24:56.671Z,32.83
2019-02-15T05:27:27.508Z,31.33
2019-02-15T05:29:58.034Z,30.50
2019-02-15T05:32:28.464Z,30.93
2019-02-15T05:34:58.962Z,32.30
2019-02-15T05:37:29.914Z,30.53
2019-02-15T05:40:00.635Z,33.83
2019-02-15T05:42:31.138Z,31.47
2019-02-15T05:45:04.159Z,32.17
2019-02-15T05:47:34.243Z,31.37
2019-02-15T05:50:04.981Z,30.57
2019-02-15T05:52:35.735Z,30.60
2019-02-15T05:55:06.783Z,32.37
2019-02-15T05:57:37.373Z,31.77
2019-02-15T06:00:09.035Z,29.90
2019-02-15T06:02:39.849Z,32.53
2019-02-15T06:05:10.457Z,32.97
2019-02-15T06:07:41.082Z,31.30
2019-02-15T06:10:11.841Z,32.90
2019-02-15T06:12:43.029Z,33.87
2019-02-15T06:15:15.492Z,31.97
2019-02-15T06:17:45.961Z,33.23
2019-02-15T06:20:16.478Z,31.80
2019-02-15T06:22:47.239Z,35.63
2019-02-15T06:25:18.170Z,39.80
2019-02-15T06:27:48.864Z,33.27
2019-02-15T06:30:28.030Z,31.97
2019-02-15T06:32:59.401Z,34.23
2019-02-15T06:35:30.434Z,31.50
2019-02-15T06:38:01.043Z,35.10
2019-02-15T06:40:31.970Z,31.87
2019-02-15T06:43:03.434Z,33.07
2019-02-15T06:45:35.309Z,31.90
2019-02-15T06:48:06.394Z,33.93
2019-02-15T06:50:37.129Z,32.73
2019-02-15T06:53:09.866Z,32.77
2019-02-15T06:55:39.901Z,32.40
2019-02-15T06:58:10.557Z,30.20
2019-02-15T07:01:03.081Z,32.07
2019-02-15T07:03:55.339Z,31.43
2019-02-15T07:06:25.643Z,30.77
2019-02-15T07:08:56.345Z,31.00
2019-02-15T07:11:27.151Z,31.57
2019-02-15T07:13:59.579Z,31.67
2019-02-15T07:16:30.259Z,32.03
2019-02-15T07:19:01.219Z,30.13
2019-02-15T07:21:32.179Z,32.80
2019-02-15T07:24:03.349Z,33.87
2019-02-15T07:26:34.309Z,33.53
2019-02-15T07:29:05.046Z,33.83
2019-02-15T07:31:35.934Z,32.27
2019-02-15T07:34:09.379Z,32.60
2019-02-15T07:36:43.503Z,34.20
2019-02-15T07:39:14.289Z,34.87
2019-02-15T07:41:45.108Z,34.60
2019-02-15T07:44:15.779Z,34.10
2019-02-15T07:46:47.204Z,36.17
2019-02-15T07:49:26.440Z,34.47
2019-02-15T07:51:50.158Z,35.43
2019-02-15T07:54:22.649Z,35.53
2019-02-15T07:56:53.563Z,35.23
2019-02-15T07:59:24.414Z,35.00
2019-02-15T08:02:01.605Z,35.17
2019-02-15T08:04:28.579Z,34.17
2019-02-15T08:06:59.673Z,35.40
2019-02-15T08:09:30.401Z,35.97
2019-02-15T08:12:01.168Z,37.10
2019-02-15T08:18:04.534Z,35.63
2019-02-15T08:20:35.394Z,36.83
2019-02-15T08:23:06.409Z,41.97
2019-02-15T08:25:37.329Z,37.60
2019-02-15T08:28:07.974Z,37.83
2019-02-15T08:30:38.607Z,38.27
2019-02-15T08:33:09.559Z,36.83
2019-02-15T08:35:40.303Z,35.13
2019-02-15T08:38:11.214Z,40.63
2019-02-15T08:40:41.714Z,35.70
2019-02-15T08:43:12.489Z,37.77
2019-02-15T08:45:43.184Z,33.27
2019-02-15T08:48:14.169Z,35.73
2019-02-15T08:50:44.979Z,39.60
2019-02-15T08:53:15.505Z,37.00
2019-02-15T08:55:46.324Z,37.70
2019-02-15T08:58:17.049Z,37.30
2019-02-15T09:00:47.595Z,37.20
2019-02-15T09:03:18.314Z,37.17
2019-02-15T09:05:49.030Z,37.37
2019-02-15T09:08:19.790Z,36.83
2019-02-15T09:10:50.408Z,35.93
2019-02-15T09:13:21.147Z,35.27
2019-02-15T09:15:52.038Z,34.53
2019-02-15T09:18:22.869Z,35.57
2019-02-15T09:20:53.594Z,36.07
2019-02-15T09:23:24.204Z,35.13
2019-02-15T09:25:54.943Z,33.23
2019-02-15T09:28:31.219Z,35.47
2019-02-15T09:31:04.389Z,34.57
2019-02-15T09:33:34.879Z,36.83
2019-02-15T09:36:05.359Z,35.37
2019-02-15T09:38:36.524Z,34.83
2019-02-15T09:41:07.095Z,31.70
2019-02-15T09:43:37.948Z,32.07
2019-02-15T09:46:08.813Z,32.90
2019-02-15T09:48:39.403Z,33.63
2019-02-15T09:51:10.935Z,32.40
2019-02-15T09:53:41.902Z,33.33
2019-02-15T09:56:13.014Z,28.77
2019-02-15T09:58:43.829Z,31.93
2019-02-15T10:01:14.379Z,30.33
2019-02-15T10:03:48.097Z,31.80
2019-02-15T10:06:18.740Z,31.63
2019-02-15T10:08:49.544Z,31.37
2019-02-15T10:11:20.793Z,32.00
2019-02-15T10:13:51.459Z,32.70
2019-02-15T10:16:28.751Z,31.90
2019-02-15T10:18:54.389Z,30.83
2019-02-15T10:21:24.754Z,32.13
2019-02-15T10:23:55.156Z,30.43
2019-02-15T10:26:25.993Z,31.47
2019-02-15T10:28:56.774Z,29.60
2019-02-15T10:31:27.513Z,32.90
2019-02-15T10:33:58.339Z,32.03
2019-02-15T10:36:29.154Z,30.77
2019-02-15T10:38:59.839Z,31.97
2019-02-15T10:41:30.958Z,31.03
2019-02-15T10:44:01.425Z,32.07
2019-02-15T10:46:37.620Z,32.27
2019-02-15T10:49:04.313Z,32.10
2019-02-15T10:51:34.975Z,34.70
2019-02-15T10:54:05.910Z,36.93
2019-02-15T10:56:36.879Z,34.93
2019-02-15T10:59:07.569Z,34.30
2019-02-15T11:01:38.284Z,35.30
2019-02-15T11:04:09.012Z,33.67
2019-02-15T11:06:39.575Z,34.83
2019-02-15T11:09:13.414Z,34.60
2019-02-15T11:11:43.948Z,35.50
2019-02-15T11:14:14.514Z,34.37
2019-02-15T11:16:47.327Z,34.50
2019-02-15T11:19:17.524Z,34.00
2019-02-15T11:21:48.079Z,34.90
2019-02-15T11:24:18.580Z,35.47
2019-02-15T11:26:48.979Z,34.93
2019-02-15T11:29:19.796Z,38.03
2019-02-15T11:31:50.592Z,35.27
2019-02-15T11:34:21.044Z,33.47
2019-02-15T11:36:51.689Z,33.60
2019-02-15T11:39:23.554Z,35.20
2019-02-15T11:41:54.549Z,34.00
2019-02-15T11:44:25.139Z,33.13
2019-02-15T11:46:56.872Z,33.07
2019-02-15T11:49:27.650Z,32.50
2019-02-15T11:51:58.274Z,31.03
2019-02-15T11:54:29.154Z,31.87
2019-02-15T11:56:59.899Z,32.53
2019-02-15T11:59:32.486Z,33.17
2019-02-15T12:02:06.275Z,32.67
2019-02-15T12:04:34.763Z,35.37
2019-02-15T12:07:05.303Z,33.23
2019-02-15T12:09:35.983Z,33.60
2019-02-15T12:12:10.679Z,31.83
2019-02-15T12:14:38.614Z,31.77
2019-02-15T12:17:09.306Z,33.30
2019-02-15T12:19:39.874Z,33.67
2019-02-15T12:22:10.439Z,33.70
2019-02-15T12:24:41.223Z,34.07
2019-02-15T12:27:11.934Z,33.60
2019-02-15T12:29:42.414Z,35.27
2019-02-15T12:32:12.991Z,36.13
2019-02-15T12:34:43.553Z,36.33
2019-02-15T12:37:14.654Z,36.20
2019-02-15T12:39:45.369Z,36.33
2019-02-15T12:42:15.894Z,37.37
2019-02-15T12:44:46.361Z,38.03
2019-02-15T12:47:17.294Z,37.07
2019-02-15T12:49:48.059Z,39.67
2019-02-15T12:52:18.659Z,40.03
2019-02-15T12:54:49.359Z,39.27
2019-02-15T12:57:19.772Z,39.70
2019-02-15T12:59:50.226Z,38.00
2019-02-15T13:02:20.799Z,38.43
2019-02-15T13:04:51.310Z,38.63
2019-02-15T13:07:21.759Z,40.70
2019-02-15T13:09:52.779Z,40.07
2019-02-15T13:12:23.134Z,42.43
2019-02-15T13:14:53.610Z,43.33
2019-02-15T13:17:25.123Z,43.90
2019-02-15T13:19:55.742Z,43.07
2019-02-15T13:22:26.243Z,44.50
2019-02-15T13:24:57.230Z,43.10
2019-02-15T13:27:27.834Z,41.70
2019-02-15T13:29:58.230Z,43.07
2019-02-15T13:32:28.900Z,43.37
2019-02-15T13:34:59.299Z,43.10
2019-02-15T13:37:29.770Z,41.80
2019-02-15T13:40:00.481Z,44.37
2019-02-15T13:42:31.019Z,44.60
2019-02-15T13:45:01.524Z,43.57
2019-02-15T13:47:34.468Z,40.53
2019-02-15T13:50:04.309Z,39.97
2019-02-15T13:52:34.949Z,40.53
2019-02-15T13:55:05.728Z,43.47
2019-02-15T13:57:36.279Z,43.03
2019-02-15T14:00:07.424Z,42.43
2019-02-15T14:02:38.009Z,43.27
2019-02-15T14:05:09.769Z,43.90
2019-02-15T14:07:40.835Z,43.70
2019-02-15T14:10:12.124Z,42.50
2019-02-15T14:12:42.857Z,42.83
2019-02-15T14:15:13.738Z,43.90
2019-02-15T14:17:47.709Z,43.53
2019-02-15T14:20:16.869Z,40.83
2019-02-15T14:22:47.645Z,41.30
2019-02-15T14:25:18.401Z,40.57
2019-02-15T14:27:49.099Z,42.80
2019-02-15T14:30:19.669Z,42.50
2019-02-15T14:32:50.309Z,41.70
2019-02-15T14:35:21.145Z,42.97
2019-02-15T14:37:51.894Z,43.33
2019-02-15T14:40:22.439Z,43.83
2019-02-15T14:42:53.270Z,43.10
2019-02-15T14:45:23.909Z,42.03
2019-02-15T14:47:55.389Z,42.50
2019-02-15T14:50:26.840Z,41.33
2019-02-15T14:52:57.379Z,46.63
2019-02-15T14:55:27.989Z,44.27
2019-02-15T14:57:58.504Z,44.90
2019-02-15T15:00:29.163Z,44.60
2019-02-15T15:02:59.574Z,44.13
2019-02-15T15:05:30.299Z,40.57
2019-02-15T15:08:00.876Z,42.83
2019-02-15T15:10:31.475Z,43.87
2019-02-15T15:13:02.045Z,42.33
2019-02-15T15:15:32.469Z,41.90
2019-02-15T15:18:12.719Z,43.63
2019-02-15T15:20:35.779Z,41.90
2019-02-15T15:23:06.479Z,41.33
2019-02-15T15:25:37.384Z,40.60
2019-02-15T15:28:07.981Z,40.60
2019-02-15T15:30:38.534Z,40.60
2019-02-15T15:33:09.189Z,40.97
2019-02-15T15:35:39.987Z,43.47
2019-02-15T15:38:10.764Z,41.73
2019-02-15T15:40:41.696Z,43.57
2019-02-15T15:43:13.096Z,44.03
2019-02-15T15:45:43.917Z,45.10
2019-02-15T15:48:22.456Z,44.97
2019-02-15T15:50:46.986Z,45.43
2019-02-15T15:53:17.594Z,42.53
2019-02-15T15:55:48.395Z,44.93
2019-02-15T15:58:19.299Z,45.53
2019-02-15T16:00:50.194Z,45.67
2019-02-15T16:03:20.707Z,45.63
2019-02-15T16:05:51.300Z,45.50
2019-02-15T16:08:21.974Z,45.80
2019-02-15T16:10:52.544Z,45.93
2019-02-15T16:13:23.026Z,44.83
2019-02-15T16:15:53.979Z,42.33
2019-02-15T16:18:33.026Z,43.43
2019-02-15T16:20:57.119Z,43.70
2019-02-15T16:23:28.068Z,44.03
2019-02-15T16:25:58.704Z,45.20
2019-02-15T16:28:29.624Z,44.13
2019-02-15T16:31:00.241Z,44.10
2019-02-15T16:33:31.354Z,46.40
2019-02-15T16:36:02.440Z,45.30
2019-02-15T16:38:33.284Z,44.63
2019-02-15T16:41:04.126Z,45.57
2019-02-15T16:43:44.829Z,45.57
2019-02-15T16:46:17.855Z,44.70
2019-02-15T16:48:49.514Z,45.80
2019-02-15T16:51:21.654Z,45.87
2019-02-15T16:53:55.800Z,43.90
2019-02-15T16:56:26.555Z,43.80
2019-02-15T16:59:02.024Z,43.90
2019-02-15T17:01:41.835Z,45.77
2019-02-15T17:04:35.204Z,47.23
2019-02-15T17:07:43.379Z,45.73
2019-02-15T17:10:49.580Z,46.57
2019-02-15T17:13:23.025Z,44.73
2019-02-15T17:16:26.779Z,44.90
2019-02-15T17:19:08.134Z,42.90
2019-02-15T17:21:46.954Z,43.47
2019-02-15T17:24:31.704Z,44.47
2019-02-15T17:27:17.045Z,43.60
2019-02-15T17:30:00.979Z,42.33
2019-02-15T17:32:38.674Z,42.27
2019-02-15T17:35:23.499Z,43.97
2019-02-15T17:38:05.934Z,42.30
2019-02-15T17:40:51.634Z,42.53
2019-02-15T17:43:37.524Z,42.83
2019-02-15T17:46:14.265Z,43.23
2019-02-15T17:51:50.514Z,43.20
2019-02-15T17:54:28.835Z,43.33
2019-02-15T17:57:07.635Z,43.80
2019-02-15T17:59:57.419Z,43.50
2019-02-15T18:02:49.621Z,43.17
2019-02-15T18:05:28.834Z,42.30
2019-02-15T18:08:03.649Z,43.53
2019-02-15T18:10:38.150Z,41.63
2019-02-15T18:13:19.804Z,41.87
2019-02-15T18:15:55.960Z,41.23
2019-02-15T18:18:39.332Z,43.00
2019-02-15T18:21:20.753Z,43.57
2019-02-15T18:24:00.534Z,44.53
2019-02-15T18:26:43.220Z,44.83
2019-02-15T18:29:22.945Z,44.83
2019-02-15T18:32:21.129Z,46.37
2019-02-15T18:35:16.084Z,43.80
2019-02-15T18:38:00.306Z,48.07
2019-02-15T18:41:00.119Z,46.43
2019-02-15T18:43:45.231Z,47.30
2019-02-15T18:46:32.754Z,45.33
2019-02-15T18:49:19.664Z,46.47
2019-02-15T18:52:01.110Z,49.00
2019-02-15T18:54:42.734Z,49.20
2019-02-15T18:57:36.847Z,49.67
2019-02-15T19:00:21.071Z,51.70
2019-02-15T19:03:02.054Z,51.70
2019-02-15T19:05:45.724Z,52.13
2019-02-15T19:08:32.280Z,53.73
2019-02-15T19:11:08.571Z,53.53
2019-02-15T19:13:44.744Z,52.33
2019-02-15T19:16:26.450Z,53.90
2019-02-15T19:19:13.690Z,51.80
2019-02-15T19:21:55.496Z,53.60
2019-02-15T19:24:39.649Z,59.00
2019-02-15T19:27:18.606Z,52.73
2019-02-15T19:30:01.484Z,53.07
2019-02-15T19:33:03.130Z,52.57
2019-02-15T19:35:57.184Z,52.30
2019-02-15T19:38:48.489Z,52.13
2019-02-15T19:41:40.169Z,52.43
2019-02-15T19:44:12.669Z,50.80
2019-02-15T19:47:02.249Z,52.87
2019-02-15T19:49:39.815Z,51.17
2019-02-15T19:52:22.594Z,51.10
2019-02-15T19:55:16.474Z,50.70
2019-02-15T19:57:53.424Z,49.70
2019-02-15T20:00:36.494Z,52.10
2019-02-15T20:03:19.844Z,49.83
2019-02-15T20:05:56.994Z,49.50
2019-02-15T20:08:55.622Z,51.57
2019-02-15T20:11:36.509Z,51.77
2019-02-15T20:14:36.994Z,51.17
2019-02-15T20:17:21.300Z,51.30
2019-02-15T20:26:11.070Z,50.83
2019-02-15T20:28:58.573Z,52.27
2019-02-15T20:31:41.204Z,50.53
2019-02-15T20:34:45.391Z,49.83
2019-02-15T20:37:36.539Z,51.50
2019-02-15T20:40:17.089Z,49.70
2019-02-15T20:43:00.021Z,48.23
2019-02-15T20:46:00.484Z,49.80
2019-02-15T20:48:49.046Z,50.70
2019-02-15T20:51:36.483Z,51.07
2019-02-15T20:54:42.564Z,50.13
2019-02-15T20:57:33.759Z,50.40
2019-02-15T21:00:18.988Z,50.43
2019-02-15T21:03:00.443Z,50.87
2019-02-15T21:05:39.433Z,49.67
2019-02-15T21:08:21.064Z,53.93
2019-02-15T21:11:12.515Z,52.93
2019-02-15T21:13:48.860Z,52.03
2019-02-15T21:16:30.759Z,53.20
2019-02-15T21:19:23.791Z,52.93
2019-02-15T21:22:03.155Z,51.97
2019-02-15T21:24:45.530Z,53.23
2019-02-15T21:27:23.879Z,52.33
2019-02-15T21:30:04.869Z,53.50
2019-02-15T21:33:01.004Z,57.53
2019-02-15T21:35:40.031Z,52.67
2019-02-15T21:38:13.923Z,56.03
2019-02-15T21:40:46.764Z,55.23
2019-02-15T21:43:17.094Z,54.70
2019-02-15T21:45:48.046Z,54.77
2019-02-15T21:48:18.982Z,53.93
2019-02-15T21:50:52.514Z,53.87
2019-02-15T21:53:24.914Z,53.67
2019-02-15T21:55:56.530Z,53.47
2019-02-15T21:58:27.604Z,52.17
2019-02-15T22:00:58.559Z,51.53
2019-02-15T22:03:29.574Z,53.60
2019-02-15T22:06:00.334Z,54.27
2019-02-15T22:08:31.104Z,54.60
2019-02-15T22:11:02.049Z,55.20
2019-02-15T22:13:34.820Z,53.60
2019-02-15T22:16:05.244Z,52.57
2019-02-15T22:18:36.014Z,55.00
2019-02-15T22:21:06.574Z,52.60
2019-02-15T22:23:37.654Z,53.90
2019-02-15T22:26:08.349Z,53.17
2019-02-15T22:28:39.089Z,53.13
2019-02-15T22:31:11.886Z,53.97
2019-02-15T22:33:42.749Z,52.17
2019-02-15T22:36:13.689Z,53.10
2019-02-15T22:38:44.684Z,51.20
2019-02-15T22:41:19.394Z,52.33
2019-02-15T22:43:50.404Z,52.07
2019-02-15T22:46:21.169Z,50.47
2019-02-15T22:48:51.854Z,49.13
2019-02-15T22:51:22.614Z,48.47
2019-02-15T22:53:53.371Z,47.37
2019-02-15T22:56:24.309Z,47.10
2019-02-15T22:58:54.933Z,46.80
2019-02-15T23:01:25.838Z,47.43
2019-02-15T23:03:56.634Z,47.77
2019-02-15T23:06:27.474Z,51.23
2019-02-15T23:08:58.154Z,50.90
2019-02-15T23:11:28.790Z,48.93
2019-02-15T23:13:59.474Z,50.20
2019-02-15T23:16:30.219Z,48.73
2019-02-15T23:19:01.139Z,48.23
2019-02-15T23:21:31.724Z,49.87
2019-02-15T23:24:02.167Z,51.63
2019-02-15T23:26:32.690Z,50.03
2019-02-15T23:29:03.641Z,52.27
2019-02-15T23:31:34.279Z,50.33
2019-02-15T23:34:05.230Z,51.63
2019-02-15T23:36:35.854Z,53.87
2019-02-15T23:39:07.024Z,53.57
2019-02-15T23:41:37.779Z,57.40
2019-02-15T23:44:08.774Z,51.20
2019-02-15T23:46:39.403Z,49.83
2019-02-15T23:49:10.019Z,50.53
2019-02-15T23:51:40.819Z,51.73
2019-02-15T23:54:11.354Z,47.50
2019-02-15T23:56:41.950Z,50.97
2019-02-15T23:59:12.664Z,53.70
